sensor_id;sensor_type;location;lat;lon;timestamp;P1;durP1;ratioP1;P2;durP2;ratioP2
24567;SDS011;12731;52.182;8.716;2023-02-15T00:01:14;19.00;;;13.07;;
24567;SDS011;12731;52.182;8.716;2023-02-15T00:03:40;19.13;;;13.52;;
24567;SDS011;12731;52.182;8.716;2023-02-15T00:06:07;18.30;;;12.52;;
24567;SDS011;12731;52.182;8.716;2023-02-15T00:08:33;18.42;;;13.07;;
24567;SDS011;12731;52.182;8.716;2023-02-15T00:11:06;18.25;;;12.52;;
24567;SDS011;12731;52.182;8.716;2023-02-15T00:13:37;16.80;;;11.82;;
24567;SDS011;12731;52.182;8.716;2023-02-15T00:16:06;17.73;;;12.60;;
24567;SDS011;12731;52.182;8.716;2023-02-15T00:18:33;16.80;;;12.48;;
24567;SDS011;12731;52.182;8.716;2023-02-15T00:21:03;16.77;;;11.98;;
24567;SDS011;12731;52.182;8.716;2023-02-15T00:23:31;16.17;;;11.50;;
24567;SDS011;12731;52.182;8.716;2023-02-15T00:26:08;17.40;;;12.05;;
24567;SDS011;12731;52.182;8.716;2023-02-15T00:28:35;19.00;;;12.63;;
24567;SDS011;12731;52.182;8.716;2023-02-15T00:31:03;17.92;;;12.70;;
24567;SDS011;12731;52.182;8.716;2023-02-15T00:33:30;18.08;;;12.70;;
24567;SDS011;12731;52.182;8.716;2023-02-15T00:35:57;18.05;;;12.77;;
24567;SDS011;12731;52.182;8.716;2023-02-15T00:38:26;18.67;;;13.10;;
24567;SDS011;12731;52.182;8.716;2023-02-15T00:40:56;19.38;;;13.73;;
24567;SDS011;12731;52.182;8.716;2023-02-15T00:43:23;20.20;;;12.98;;
24567;SDS011;12731;52.182;8.716;2023-02-15T00:45:50;21.05;;;13.68;;
24567;SDS011;12731;52.182;8.716;2023-02-15T00:48:16;17.50;;;12.10;;
24567;SDS011;12731;52.182;8.716;2023-02-15T00:50:46;18.15;;;12.88;;
24567;SDS011;12731;52.182;8.716;2023-02-15T00:53:14;18.40;;;12.43;;
24567;SDS011;12731;52.182;8.716;2023-02-15T00:55:40;21.02;;;13.50;;
24567;SDS011;12731;52.182;8.716;2023-02-15T00:58:08;17.55;;;12.73;;
24567;SDS011;12731;52.182;8.716;2023-02-15T01:00:35;22.10;;;14.07;;
24567;SDS011;12731;52.182;8.716;2023-02-15T01:03:02;19.13;;;13.80;;
24567;SDS011;12731;52.182;8.716;2023-02-15T01:05:29;19.42;;;14.10;;
24567;SDS011;12731;52.182;8.716;2023-02-15T01:07:59;21.85;;;14.43;;
24567;SDS011;12731;52.182;8.716;2023-02-15T01:10:25;21.65;;;14.88;;
24567;SDS011;12731;52.182;8.716;2023-02-15T01:12:52;22.70;;;15.07;;
24567;SDS011;12731;52.182;8.716;2023-02-15T01:15:20;19.85;;;14.18;;
24567;SDS011;12731;52.182;8.716;2023-02-15T01:17:46;23.85;;;14.98;;
24567;SDS011;12731;52.182;8.716;2023-02-15T01:20:17;22.83;;;14.95;;
24567;SDS011;12731;52.182;8.716;2023-02-15T01:22:44;20.90;;;13.93;;
24567;SDS011;12731;52.182;8.716;2023-02-15T01:25:11;22.42;;;15.05;;
24567;SDS011;12731;52.182;8.716;2023-02-15T01:27:38;22.70;;;14.73;;
24567;SDS011;12731;52.182;8.716;2023-02-15T01:30:04;24.02;;;16.48;;
24567;SDS011;12731;52.182;8.716;2023-02-15T01:32:31;23.27;;;15.60;;
24567;SDS011;12731;52.182;8.716;2023-02-15T01:34:57;23.73;;;15.32;;
24567;SDS011;12731;52.182;8.716;2023-02-15T01:37:24;25.70;;;16.48;;
24567;SDS011;12731;52.182;8.716;2023-02-15T01:39:50;24.55;;;16.35;;
24567;SDS011;12731;52.182;8.716;2023-02-15T01:42:23;21.85;;;14.95;;
24567;SDS011;12731;52.182;8.716;2023-02-15T01:44:52;25.85;;;16.15;;
24567;SDS011;12731;52.182;8.716;2023-02-15T01:47:23;21.38;;;14.52;;
24567;SDS011;12731;52.182;8.716;2023-02-15T01:49:58;21.63;;;14.60;;
24567;SDS011;12731;52.182;8.716;2023-02-15T01:52:28;19.67;;;13.95;;
24567;SDS011;12731;52.182;8.716;2023-02-15T01:54:55;23.10;;;15.35;;
24567;SDS011;12731;52.182;8.716;2023-02-15T01:57:22;22.83;;;15.25;;
24567;SDS011;12731;52.182;8.716;2023-02-15T01:59:51;23.02;;;15.82;;
24567;SDS011;12731;52.182;8.716;2023-02-15T02:02:20;22.77;;;14.60;;
24567;SDS011;12731;52.182;8.716;2023-02-15T02:04:51;23.52;;;15.18;;
24567;SDS011;12731;52.182;8.716;2023-02-15T02:07:19;22.15;;;15.30;;
24567;SDS011;12731;52.182;8.716;2023-02-15T02:09:47;21.83;;;14.65;;
24567;SDS011;12731;52.182;8.716;2023-02-15T02:12:15;24.00;;;15.95;;
24567;SDS011;12731;52.182;8.716;2023-02-15T02:14:43;24.15;;;16.10;;
24567;SDS011;12731;52.182;8.716;2023-02-15T02:17:18;22.75;;;15.77;;
24567;SDS011;12731;52.182;8.716;2023-02-15T02:23:00;25.70;;;16.75;;
24567;SDS011;12731;52.182;8.716;2023-02-15T02:25:48;26.65;;;16.27;;
24567;SDS011;12731;52.182;8.716;2023-02-15T02:34:29;22.45;;;15.35;;
24567;SDS011;12731;52.182;8.716;2023-02-15T02:37:03;22.73;;;15.77;;
24567;SDS011;12731;52.182;8.716;2023-02-15T02:47:47;22.23;;;15.10;;
24567;SDS011;12731;52.182;8.716;2023-02-15T02:50:17;22.80;;;14.55;;
24567;SDS011;12731;52.182;8.716;2023-02-15T02:52:48;21.10;;;14.70;;
24567;SDS011;12731;52.182;8.716;2023-02-15T02:55:17;21.17;;;14.77;;
24567;SDS011;12731;52.182;8.716;2023-02-15T02:57:52;21.23;;;14.35;;
24567;SDS011;12731;52.182;8.716;2023-02-15T03:00:20;20.88;;;15.00;;
24567;SDS011;12731;52.182;8.716;2023-02-15T03:02:52;22.33;;;15.18;;
24567;SDS011;12731;52.182;8.716;2023-02-15T03:05:25;22.35;;;15.20;;
24567;SDS011;12731;52.182;8.716;2023-02-15T03:07:53;20.67;;;15.00;;
24567;SDS011;12731;52.182;8.716;2023-02-15T03:10:20;24.05;;;15.93;;
24567;SDS011;12731;52.182;8.716;2023-02-15T03:12:48;23.40;;;15.38;;
24567;SDS011;12731;52.182;8.716;2023-02-15T03:15:18;23.40;;;16.00;;
24567;SDS011;12731;52.182;8.716;2023-02-15T03:17:48;23.25;;;15.38;;
24567;SDS011;12731;52.182;8.716;2023-02-15T03:20:20;22.33;;;14.95;;
24567;SDS011;12731;52.182;8.716;2023-02-15T03:22:53;26.58;;;16.75;;
24567;SDS011;12731;52.182;8.716;2023-02-15T03:25:33;24.60;;;16.48;;
24567;SDS011;12731;52.182;8.716;2023-02-15T03:28:03;27.10;;;17.02;;
24567;SDS011;12731;52.182;8.716;2023-02-15T03:30:32;17.88;;;12.93;;
24567;SDS011;12731;52.182;8.716;2023-02-15T03:33:01;23.48;;;16.80;;
24567;SDS011;12731;52.182;8.716;2023-02-15T03:35:32;24.30;;;17.17;;
24567;SDS011;12731;52.182;8.716;2023-02-15T03:38:00;26.30;;;17.50;;
24567;SDS011;12731;52.182;8.716;2023-02-15T03:40:29;26.80;;;17.98;;
24567;SDS011;12731;52.182;8.716;2023-02-15T03:46:08;30.65;;;20.00;;
24567;SDS011;12731;52.182;8.716;2023-02-15T03:48:43;28.15;;;18.70;;
24567;SDS011;12731;52.182;8.716;2023-02-15T03:51:14;29.15;;;18.95;;
24567;SDS011;12731;52.182;8.716;2023-02-15T03:54:36;30.10;;;19.13;;
24567;SDS011;12731;52.182;8.716;2023-02-15T03:57:23;30.42;;;19.38;;
24567;SDS011;12731;52.182;8.716;2023-02-15T04:05:41;25.80;;;18.27;;
24567;SDS011;12731;52.182;8.716;2023-02-15T04:08:09;27.95;;;19.65;;
24567;SDS011;12731;52.182;8.716;2023-02-15T04:10:35;32.00;;;20.65;;
24567;SDS011;12731;52.182;8.716;2023-02-15T04:13:23;30.63;;;20.23;;
24567;SDS011;12731;52.182;8.716;2023-02-15T04:15:55;26.95;;;18.77;;
24567;SDS011;12731;52.182;8.716;2023-02-15T04:18:32;26.83;;;18.95;;
24567;SDS011;12731;52.182;8.716;2023-02-15T04:21:23;29.58;;;18.70;;
24567;SDS011;12731;52.182;8.716;2023-02-15T04:24:08;30.90;;;19.48;;
24567;SDS011;12731;52.182;8.716;2023-02-15T04:26:53;25.27;;;17.42;;
24567;SDS011;12731;52.182;8.716;2023-02-15T04:29:20;25.70;;;17.60;;
24567;SDS011;12731;52.182;8.716;2023-02-15T04:31:48;33.03;;;19.65;;
24567;SDS011;12731;52.182;8.716;2023-02-15T04:34:15;25.45;;;17.45;;
24567;SDS011;12731;52.182;8.716;2023-02-15T04:36:41;28.95;;;19.15;;
24567;SDS011;12731;52.182;8.716;2023-02-15T04:39:08;29.42;;;19.00;;
24567;SDS011;12731;52.182;8.716;2023-02-15T04:41:35;29.45;;;19.45;;
24567;SDS011;12731;52.182;8.716;2023-02-15T04:44:02;30.67;;;18.60;;
24567;SDS011;12731;52.182;8.716;2023-02-15T04:46:28;30.60;;;19.90;;
24567;SDS011;12731;52.182;8.716;2023-02-15T04:48:56;27.70;;;18.48;;
24567;SDS011;12731;52.182;8.716;2023-02-15T04:51:22;29.38;;;19.25;;
24567;SDS011;12731;52.182;8.716;2023-02-15T04:53:49;29.83;;;18.38;;
24567;SDS011;12731;52.182;8.716;2023-02-15T04:56:19;34.72;;;21.20;;
24567;SDS011;12731;52.182;8.716;2023-02-15T04:58:45;38.17;;;22.48;;
24567;SDS011;12731;52.182;8.716;2023-02-15T05:01:12;35.45;;;22.85;;
24567;SDS011;12731;52.182;8.716;2023-02-15T05:03:39;32.63;;;21.58;;
24567;SDS011;12731;52.182;8.716;2023-02-15T05:06:05;33.05;;;21.42;;
24567;SDS011;12731;52.182;8.716;2023-02-15T05:08:32;36.92;;;22.30;;
24567;SDS011;12731;52.182;8.716;2023-02-15T05:10:58;34.65;;;21.40;;
24567;SDS011;12731;52.182;8.716;2023-02-15T05:13:24;34.88;;;22.30;;
24567;SDS011;12731;52.182;8.716;2023-02-15T05:15:51;32.90;;;21.38;;
24567;SDS011;12731;52.182;8.716;2023-02-15T05:18:19;34.72;;;21.42;;
24567;SDS011;12731;52.182;8.716;2023-02-15T05:20:46;34.35;;;20.90;;
24567;SDS011;12731;52.182;8.716;2023-02-15T05:23:14;33.97;;;21.92;;
24567;SDS011;12731;52.182;8.716;2023-02-15T05:25:40;36.03;;;22.27;;
24567;SDS011;12731;52.182;8.716;2023-02-15T05:28:26;32.95;;;21.30;;
24567;SDS011;12731;52.182;8.716;2023-02-15T05:31:02;35.00;;;21.95;;
24567;SDS011;12731;52.182;8.716;2023-02-15T05:33:30;32.63;;;22.02;;
24567;SDS011;12731;52.182;8.716;2023-02-15T05:35:57;34.92;;;20.95;;
24567;SDS011;12731;52.182;8.716;2023-02-15T05:38:24;31.98;;;21.17;;
24567;SDS011;12731;52.182;8.716;2023-02-15T05:40:51;35.53;;;21.02;;
24567;SDS011;12731;52.182;8.716;2023-02-15T05:43:17;34.80;;;21.33;;
24567;SDS011;12731;52.182;8.716;2023-02-15T05:45:45;33.17;;;21.17;;
24567;SDS011;12731;52.182;8.716;2023-02-15T05:48:12;33.47;;;20.77;;
24567;SDS011;12731;52.182;8.716;2023-02-15T05:50:38;35.28;;;21.65;;
24567;SDS011;12731;52.182;8.716;2023-02-15T05:53:08;36.72;;;21.42;;
24567;SDS011;12731;52.182;8.716;2023-02-15T05:55:36;34.10;;;20.90;;
24567;SDS011;12731;52.182;8.716;2023-02-15T05:58:03;34.13;;;21.35;;
24567;SDS011;12731;52.182;8.716;2023-02-15T06:00:30;34.17;;;21.55;;
24567;SDS011;12731;52.182;8.716;2023-02-15T06:02:56;38.13;;;23.15;;
24567;SDS011;12731;52.182;8.716;2023-02-15T06:05:23;35.50;;;20.75;;
24567;SDS011;12731;52.182;8.716;2023-02-15T06:07:49;33.88;;;21.95;;
24567;SDS011;12731;52.182;8.716;2023-02-15T06:10:16;34.55;;;21.02;;
24567;SDS011;12731;52.182;8.716;2023-02-15T06:12:43;35.15;;;21.75;;
24567;SDS011;12731;52.182;8.716;2023-02-15T06:15:10;33.63;;;20.50;;
24567;SDS011;12731;52.182;8.716;2023-02-15T06:17:37;33.72;;;20.88;;
24567;SDS011;12731;52.182;8.716;2023-02-15T06:20:04;33.35;;;21.33;;
24567;SDS011;12731;52.182;8.716;2023-02-15T06:22:30;33.47;;;21.27;;
24567;SDS011;12731;52.182;8.716;2023-02-15T06:24:57;31.05;;;20.13;;
24567;SDS011;12731;52.182;8.716;2023-02-15T06:27:23;33.50;;;20.58;;
24567;SDS011;12731;52.182;8.716;2023-02-15T06:29:50;32.22;;;20.98;;
24567;SDS011;12731;52.182;8.716;2023-02-15T06:32:16;32.05;;;19.38;;
24567;SDS011;12731;52.182;8.716;2023-02-15T06:34:43;31.88;;;19.90;;
24567;SDS011;12731;52.182;8.716;2023-02-15T06:37:09;32.20;;;19.92;;
24567;SDS011;12731;52.182;8.716;2023-02-15T06:39:35;31.92;;;19.35;;
24567;SDS011;12731;52.182;8.716;2023-02-15T06:42:02;31.48;;;20.20;;
24567;SDS011;12731;52.182;8.716;2023-02-15T06:44:29;34.03;;;20.48;;
24567;SDS011;12731;52.182;8.716;2023-02-15T06:46:55;31.00;;;19.70;;
24567;SDS011;12731;52.182;8.716;2023-02-15T06:49:21;31.77;;;19.67;;
24567;SDS011;12731;52.182;8.716;2023-02-15T06:51:48;31.48;;;20.70;;
24567;SDS011;12731;52.182;8.716;2023-02-15T06:54:14;33.58;;;20.55;;
24567;SDS011;12731;52.182;8.716;2023-02-15T06:56:41;31.58;;;20.35;;
24567;SDS011;12731;52.182;8.716;2023-02-15T06:59:08;30.73;;;19.75;;
24567;SDS011;12731;52.182;8.716;2023-02-15T07:01:34;30.52;;;19.60;;
24567;SDS011;12731;52.182;8.716;2023-02-15T07:04:03;31.33;;;20.23;;
24567;SDS011;12731;52.182;8.716;2023-02-15T07:06:32;33.63;;;20.17;;
24567;SDS011;12731;52.182;8.716;2023-02-15T07:08:59;30.30;;;19.60;;
24567;SDS011;12731;52.182;8.716;2023-02-15T07:11:26;34.97;;;21.08;;
24567;SDS011;12731;52.182;8.716;2023-02-15T07:14:11;32.38;;;21.38;;
24567;SDS011;12731;52.182;8.716;2023-02-15T07:16:38;32.35;;;20.20;;
24567;SDS011;12731;52.182;8.716;2023-02-15T07:19:04;32.03;;;21.50;;
24567;SDS011;12731;52.182;8.716;2023-02-15T07:21:30;32.33;;;21.05;;
24567;SDS011;12731;52.182;8.716;2023-02-15T07:23:57;39.00;;;24.02;;
24567;SDS011;12731;52.182;8.716;2023-02-15T07:26:24;41.33;;;24.50;;
24567;SDS011;12731;52.182;8.716;2023-02-15T07:28:51;42.13;;;25.08;;
24567;SDS011;12731;52.182;8.716;2023-02-15T07:31:17;40.08;;;24.38;;
24567;SDS011;12731;52.182;8.716;2023-02-15T07:33:44;40.30;;;25.00;;
24567;SDS011;12731;52.182;8.716;2023-02-15T07:36:10;44.10;;;24.83;;
24567;SDS011;12731;52.182;8.716;2023-02-15T07:38:39;38.53;;;23.23;;
24567;SDS011;12731;52.182;8.716;2023-02-15T07:41:07;34.35;;;21.75;;
24567;SDS011;12731;52.182;8.716;2023-02-15T07:43:35;33.35;;;21.45;;
24567;SDS011;12731;52.182;8.716;2023-02-15T07:46:04;34.25;;;21.48;;
24567;SDS011;12731;52.182;8.716;2023-02-15T07:48:34;33.65;;;21.17;;
24567;SDS011;12731;52.182;8.716;2023-02-15T07:51:01;33.75;;;20.95;;
24567;SDS011;12731;52.182;8.716;2023-02-15T07:53:29;36.03;;;21.27;;
24567;SDS011;12731;52.182;8.716;2023-02-15T07:55:59;33.83;;;21.25;;
24567;SDS011;12731;52.182;8.716;2023-02-15T07:58:30;32.63;;;20.48;;
24567;SDS011;12731;52.182;8.716;2023-02-15T08:01:14;33.60;;;20.50;;
24567;SDS011;12731;52.182;8.716;2023-02-15T08:03:41;32.50;;;21.55;;
24567;SDS011;12731;52.182;8.716;2023-02-15T08:06:07;34.85;;;21.52;;
24567;SDS011;12731;52.182;8.716;2023-02-15T08:08:34;34.05;;;22.65;;
24567;SDS011;12731;52.182;8.716;2023-02-15T08:13:49;35.80;;;24.45;;
24567;SDS011;12731;52.182;8.716;2023-02-15T08:16:26;42.28;;;28.50;;
24567;SDS011;12731;52.182;8.716;2023-02-15T08:18:54;42.08;;;26.45;;
24567;SDS011;12731;52.182;8.716;2023-02-15T08:21:22;41.90;;;26.35;;
24567;SDS011;12731;52.182;8.716;2023-02-15T08:23:50;39.25;;;25.10;;
24567;SDS011;12731;52.182;8.716;2023-02-15T08:26:17;38.22;;;25.33;;
24567;SDS011;12731;52.182;8.716;2023-02-15T08:28:43;39.17;;;26.63;;
24567;SDS011;12731;52.182;8.716;2023-02-15T08:31:11;40.13;;;26.92;;
24567;SDS011;12731;52.182;8.716;2023-02-15T08:33:39;41.75;;;27.48;;
24567;SDS011;12731;52.182;8.716;2023-02-15T08:36:08;46.45;;;28.88;;
24567;SDS011;12731;52.182;8.716;2023-02-15T08:38:35;48.28;;;29.10;;
24567;SDS011;12731;52.182;8.716;2023-02-15T08:41:09;47.83;;;30.00;;
24567;SDS011;12731;52.182;8.716;2023-02-15T08:43:36;50.60;;;30.35;;
24567;SDS011;12731;52.182;8.716;2023-02-15T08:46:02;51.78;;;29.48;;
24567;SDS011;12731;52.182;8.716;2023-02-15T08:48:29;50.42;;;28.00;;
24567;SDS011;12731;52.182;8.716;2023-02-15T08:50:55;54.80;;;29.88;;
24567;SDS011;12731;52.182;8.716;2023-02-15T08:53:22;51.03;;;29.38;;
24567;SDS011;12731;52.182;8.716;2023-02-15T08:55:55;47.20;;;28.88;;
24567;SDS011;12731;52.182;8.716;2023-02-15T08:58:23;47.83;;;28.60;;
24567;SDS011;12731;52.182;8.716;2023-02-15T09:00:50;47.05;;;28.85;;
24567;SDS011;12731;52.182;8.716;2023-02-15T09:03:17;47.17;;;29.15;;
24567;SDS011;12731;52.182;8.716;2023-02-15T09:05:43;50.28;;;29.13;;
24567;SDS011;12731;52.182;8.716;2023-02-15T09:08:10;57.60;;;32.22;;
24567;SDS011;12731;52.182;8.716;2023-02-15T09:10:36;51.78;;;31.50;;
24567;SDS011;12731;52.182;8.716;2023-02-15T09:13:03;50.33;;;30.63;;
24567;SDS011;12731;52.182;8.716;2023-02-15T09:15:29;50.88;;;30.40;;
24567;SDS011;12731;52.182;8.716;2023-02-15T09:17:58;49.42;;;29.13;;
24567;SDS011;12731;52.182;8.716;2023-02-15T09:20:27;46.97;;;29.13;;
24567;SDS011;12731;52.182;8.716;2023-02-15T09:22:54;46.83;;;28.50;;
24567;SDS011;12731;52.182;8.716;2023-02-15T09:25:24;44.20;;;27.33;;
24567;SDS011;12731;52.182;8.716;2023-02-15T09:27:51;46.72;;;27.08;;
24567;SDS011;12731;52.182;8.716;2023-02-15T09:30:17;49.90;;;28.92;;
24567;SDS011;12731;52.182;8.716;2023-02-15T09:32:44;49.00;;;28.42;;
24567;SDS011;12731;52.182;8.716;2023-02-15T09:35:12;43.85;;;27.08;;
24567;SDS011;12731;52.182;8.716;2023-02-15T09:37:38;46.88;;;28.77;;
24567;SDS011;12731;52.182;8.716;2023-02-15T09:40:05;45.35;;;28.13;;
24567;SDS011;12731;52.182;8.716;2023-02-15T09:42:41;40.47;;;26.85;;
24567;SDS011;12731;52.182;8.716;2023-02-15T09:45:44;43.33;;;26.58;;
24567;SDS011;12731;52.182;8.716;2023-02-15T09:48:29;41.25;;;26.90;;
24567;SDS011;12731;52.182;8.716;2023-02-15T09:53:47;43.65;;;25.70;;
24567;SDS011;12731;52.182;8.716;2023-02-15T09:56:34;44.25;;;27.35;;
24567;SDS011;12731;52.182;8.716;2023-02-15T10:01:37;41.00;;;25.50;;
24567;SDS011;12731;52.182;8.716;2023-02-15T10:10:53;38.78;;;25.77;;
24567;SDS011;12731;52.182;8.716;2023-02-15T10:13:28;40.60;;;25.05;;
24567;SDS011;12731;52.182;8.716;2023-02-15T10:18:50;54.55;;;30.17;;
24567;SDS011;12731;52.182;8.716;2023-02-15T10:24:34;50.40;;;29.27;;
24567;SDS011;12731;52.182;8.716;2023-02-15T10:27:22;52.25;;;30.25;;
24567;SDS011;12731;52.182;8.716;2023-02-15T10:32:37;47.92;;;30.58;;
24567;SDS011;12731;52.182;8.716;2023-02-15T10:35:36;52.60;;;32.90;;
24567;SDS011;12731;52.182;8.716;2023-02-15T10:38:20;45.65;;;29.83;;
24567;SDS011;12731;52.182;8.716;2023-02-15T10:47:02;46.97;;;27.95;;
24567;SDS011;12731;52.182;8.716;2023-02-15T10:58:17;43.70;;;26.92;;
24567;SDS011;12731;52.182;8.716;2023-02-15T11:00:53;40.38;;;26.33;;
24567;SDS011;12731;52.182;8.716;2023-02-15T11:06:09;41.38;;;26.08;;
24567;SDS011;12731;52.182;8.716;2023-02-15T11:08:52;39.63;;;26.10;;
24567;SDS011;12731;52.182;8.716;2023-02-15T11:11:25;33.88;;;25.42;;
24567;SDS011;12731;52.182;8.716;2023-02-15T11:13:56;39.08;;;24.90;;
24567;SDS011;12731;52.182;8.716;2023-02-15T11:16:31;35.72;;;25.50;;
24567;SDS011;12731;52.182;8.716;2023-02-15T11:19:00;32.97;;;23.02;;
24567;SDS011;12731;52.182;8.716;2023-02-15T11:21:34;33.28;;;23.52;;
24567;SDS011;12731;52.182;8.716;2023-02-15T11:24:09;33.42;;;23.83;;
24567;SDS011;12731;52.182;8.716;2023-02-15T11:26:39;35.15;;;23.52;;
24567;SDS011;12731;52.182;8.716;2023-02-15T11:29:20;33.90;;;22.88;;
24567;SDS011;12731;52.182;8.716;2023-02-15T11:31:50;32.53;;;22.20;;
24567;SDS011;12731;52.182;8.716;2023-02-15T11:34:27;30.52;;;21.77;;
24567;SDS011;12731;52.182;8.716;2023-02-15T11:37:05;33.47;;;22.98;;
24567;SDS011;12731;52.182;8.716;2023-02-15T11:39:34;29.23;;;21.05;;
24567;SDS011;12731;52.182;8.716;2023-02-15T11:42:11;29.60;;;20.92;;
24567;SDS011;12731;52.182;8.716;2023-02-15T11:47:26;29.88;;;20.50;;
24567;SDS011;12731;52.182;8.716;2023-02-15T11:49:53;27.77;;;19.90;;
24567;SDS011;12731;52.182;8.716;2023-02-15T11:52:20;26.10;;;19.20;;
24567;SDS011;12731;52.182;8.716;2023-02-15T11:54:47;26.63;;;19.40;;
24567;SDS011;12731;52.182;8.716;2023-02-15T12:02:20;22.92;;;16.33;;
24567;SDS011;12731;52.182;8.716;2023-02-15T12:04:58;22.40;;;16.50;;
24567;SDS011;12731;52.182;8.716;2023-02-15T12:07:34;18.20;;;12.88;;
24567;SDS011;12731;52.182;8.716;2023-02-15T12:12:42;16.30;;;12.07;;
24567;SDS011;12731;52.182;8.716;2023-02-15T12:15:10;18.70;;;12.45;;
24567;SDS011;12731;52.182;8.716;2023-02-15T12:17:41;17.20;;;12.13;;
24567;SDS011;12731;52.182;8.716;2023-02-15T12:22:54;15.82;;;12.15;;
24567;SDS011;12731;52.182;8.716;2023-02-15T12:25:40;17.58;;;11.82;;
24567;SDS011;12731;52.182;8.716;2023-02-15T12:28:25;16.95;;;12.25;;
24567;SDS011;12731;52.182;8.716;2023-02-15T12:31:23;17.67;;;12.90;;
24567;SDS011;12731;52.182;8.716;2023-02-15T12:33:53;16.40;;;11.35;;
24567;SDS011;12731;52.182;8.716;2023-02-15T12:36:29;17.40;;;12.60;;
24567;SDS011;12731;52.182;8.716;2023-02-15T12:39:03;16.10;;;11.68;;
24567;SDS011;12731;52.182;8.716;2023-02-15T12:41:32;16.77;;;11.65;;
24567;SDS011;12731;52.182;8.716;2023-02-15T12:59:03;17.92;;;12.90;;
24567;SDS011;12731;52.182;8.716;2023-02-15T13:11:54;16.40;;;12.00;;
24567;SDS011;12731;52.182;8.716;2023-02-15T13:44:03;16.70;;;12.68;;
24567;SDS011;12731;52.182;8.716;2023-02-15T14:10:43;19.75;;;12.88;;
24567;SDS011;12731;52.182;8.716;2023-02-15T15:15:02;18.00;;;13.05;;
24567;SDS011;12731;52.182;8.716;2023-02-15T15:20:01;17.83;;;12.32;;
24567;SDS011;12731;52.182;8.716;2023-02-15T15:22:34;21.63;;;12.75;;
24567;SDS011;12731;52.182;8.716;2023-02-15T15:25:39;17.60;;;12.80;;
24567;SDS011;12731;52.182;8.716;2023-02-15T15:28:07;18.33;;;12.07;;
24567;SDS011;12731;52.182;8.716;2023-02-15T16:27:22;15.38;;;11.18;;
24567;SDS011;12731;52.182;8.716;2023-02-15T16:48:16;16.55;;;12.95;;
24567;SDS011;12731;52.182;8.716;2023-02-15T16:50:47;18.63;;;12.55;;
24567;SDS011;12731;52.182;8.716;2023-02-15T16:53:17;18.38;;;12.93;;
24567;SDS011;12731;52.182;8.716;2023-02-15T16:55:47;18.02;;;11.32;;
24567;SDS011;12731;52.182;8.716;2023-02-15T16:58:16;18.80;;;11.98;;
24567;SDS011;12731;52.182;8.716;2023-02-15T17:00:43;18.08;;;12.57;;
24567;SDS011;12731;52.182;8.716;2023-02-15T17:05:45;17.40;;;11.77;;
24567;SDS011;12731;52.182;8.716;2023-02-15T17:08:15;19.55;;;12.45;;
24567;SDS011;12731;52.182;8.716;2023-02-15T17:11:02;18.92;;;12.50;;
24567;SDS011;12731;52.182;8.716;2023-02-15T20:54:07;28.27;;;18.42;;
24567;SDS011;12731;52.182;8.716;2023-02-15T20:56:37;27.77;;;17.65;;
24567;SDS011;12731;52.182;8.716;2023-02-15T20:59:08;28.90;;;18.73;;
24567;SDS011;12731;52.182;8.716;2023-02-15T21:01:47;28.98;;;17.92;;
24567;SDS011;12731;52.182;8.716;2023-02-15T21:20:27;26.88;;;17.15;;
24567;SDS011;12731;52.182;8.716;2023-02-15T21:22:54;25.83;;;17.17;;
24567;SDS011;12731;52.182;8.716;2023-02-15T21:25:29;26.70;;;17.58;;
24567;SDS011;12731;52.182;8.716;2023-02-15T21:27:58;29.35;;;18.95;;
24567;SDS011;12731;52.182;8.716;2023-02-15T21:30:24;27.08;;;17.77;;
24567;SDS011;12731;52.182;8.716;2023-02-15T21:41:03;27.40;;;17.63;;
24567;SDS011;12731;52.182;8.716;2023-02-15T21:43:57;28.15;;;17.60;;
24567;SDS011;12731;52.182;8.716;2023-02-15T21:46:42;26.67;;;16.60;;
24567;SDS011;12731;52.182;8.716;2023-02-15T21:49:27;25.60;;;17.27;;
24567;SDS011;12731;52.182;8.716;2023-02-15T21:51:53;23.35;;;15.20;;
24567;SDS011;12731;52.182;8.716;2023-02-15T21:54:38;23.80;;;16.52;;
24567;SDS011;12731;52.182;8.716;2023-02-15T21:57:08;26.60;;;17.10;;
24567;SDS011;12731;52.182;8.716;2023-02-15T21:59:38;27.33;;;18.05;;
24567;SDS011;12731;52.182;8.716;2023-02-15T22:02:07;34.10;;;23.10;;
24567;SDS011;12731;52.182;8.716;2023-02-15T22:31:50;36.15;;;21.23;;
24567;SDS011;12731;52.182;8.716;2023-02-15T22:34:27;29.65;;;19.20;;
24567;SDS011;12731;52.182;8.716;2023-02-15T22:36:54;29.48;;;19.10;;
24567;SDS011;12731;52.182;8.716;2023-02-15T22:39:24;30.17;;;18.42;;
24567;SDS011;12731;52.182;8.716;2023-02-15T22:41:51;31.70;;;19.52;;
24567;SDS011;12731;52.182;8.716;2023-02-15T22:44:24;29.02;;;18.30;;
24567;SDS011;12731;52.182;8.716;2023-02-15T22:46:54;34.20;;;18.98;;
24567;SDS011;12731;52.182;8.716;2023-02-15T22:49:20;28.20;;;18.88;;
24567;SDS011;12731;52.182;8.716;2023-02-15T22:51:47;32.53;;;18.92;;
24567;SDS011;12731;52.182;8.716;2023-02-15T23:16:05;32.65;;;19.15;;
24567;SDS011;12731;52.182;8.716;2023-02-15T23:18:42;31.80;;;19.30;;
24567;SDS011;12731;52.182;8.716;2023-02-15T23:21:20;28.60;;;17.85;;
24567;SDS011;12731;52.182;8.716;2023-02-15T23:23:52;28.50;;;18.05;;
24567;SDS011;12731;52.182;8.716;2023-02-15T23:26:21;28.90;;;18.55;;
24567;SDS011;12731;52.182;8.716;2023-02-15T23:28:49;28.65;;;19.33;;
24567;SDS011;12731;52.182;8.716;2023-02-15T23:31:18;29.42;;;19.20;;
24567;SDS011;12731;52.182;8.716;2023-02-15T23:50:21;30.33;;;19.13;;
